Time;durP1;ratioP1;P1;durP2;ratioP2;P2;SDS_P1;SDS_P2;PMS_P1;PMS_P2;Temp;Humidity;BMP_temperature;BMP_pressure;BME280_temperature;BME280_humidity;BME280_pressure;Samples;Min_cycle;Max_cycle;Signal;HPM_P1;HPM_P2
2021/12/01 00:02:14;;;;;;;42.07;18.90;;;10.20;99.90;;;;;;5089967;28;20636;-78
2021/12/01 00:04:41;;;;;;;41.93;19.40;;;10.20;99.90;;;;;;5089379;28;20230;-78
2021/12/01 00:07:09;;;;;;;33.23;17.90;;;10.20;99.90;;;;;;5107678;28;20316;-78
2021/12/01 00:09:36;;;;;;;34.03;16.90;;;10.20;99.90;;;;;;5109290;28;20549;-78
2021/12/01 00:12:03;;;;;;;28.50;15.83;;;10.30;99.90;;;;;;5090676;28;20227;-78
2021/12/01 00:14:30;;;;;;;26.77;13.73;;;10.20;99.90;;;;;;5071608;28;20516;-80
2021/12/01 00:16:57;;;;;;;26.83;13.93;;;10.30;99.90;;;;;;5089063;28;20247;-78
2021/12/01 00:19:24;;;;;;;25.70;13.53;;;10.30;99.90;;;;;;5089029;28;20627;-79
2021/12/01 00:21:51;;;;;;;26.93;12.37;;;10.30;99.90;;;;;;5107147;28;20301;-77
2021/12/01 00:24:18;;;;;;;24.47;12.33;;;10.30;99.90;;;;;;5091785;28;20318;-81
2021/12/01 00:26:44;;;;;;;25.33;11.77;;;10.30;99.90;;;;;;5109652;28;20202;-80
2021/12/01 00:29:11;;;;;;;20.03;11.57;;;10.30;99.90;;;;;;5090760;28;20543;-79
2021/12/01 00:31:38;;;;;;;23.67;11.53;;;10.30;99.90;;;;;;5088884;28;20200;-77
2021/12/01 00:34:05;;;;;;;23.20;11.83;;;10.30;99.90;;;;;;5090936;28;20227;-78
2021/12/01 00:36:32;;;;;;;19.07;11.20;;;10.30;99.90;;;;;;5104900;28;20204;-80
2021/12/01 00:38:58;;;;;;;24.63;11.40;;;10.30;99.90;;;;;;5088492;28;20768;-78
2021/12/01 00:41:26;;;;;;;21.80;12.10;;;10.30;99.90;;;;;;5091639;28;20199;-78
2021/12/01 00:43:54;;;;;;;20.67;11.37;;;10.30;99.90;;;;;;5096966;28;20235;-78
2021/12/01 00:46:24;;;;;;;20.97;11.37;;;10.30;99.90;;;;;;5089965;28;20732;-78
2021/12/01 00:48:51;;;;;;;19.87;10.20;;;10.30;99.90;;;;;;5092314;28;20248;-78
2021/12/01 00:51:18;;;;;;;19.90;11.37;;;10.30;99.90;;;;;;5070701;28;20725;-77
2021/12/01 00:53:45;;;;;;;15.37;8.67;;;10.40;99.90;;;;;;5089317;28;20227;-78
2021/12/01 00:56:12;;;;;;;18.23;10.10;;;10.30;99.90;;;;;;5088619;28;20208;-79
2021/12/01 00:58:39;;;;;;;17.90;9.90;;;10.40;99.90;;;;;;5106236;28;20733;-77
2021/12/01 01:01:05;;;;;;;19.73;10.03;;;10.40;99.90;;;;;;5093915;28;20294;-78
2021/12/01 01:03:33;;;;;;;20.10;10.57;;;10.40;99.90;;;;;;5094018;28;20261;-78
2021/12/01 01:06:01;;;;;;;19.60;10.80;;;10.40;99.90;;;;;;5092766;28;20766;-78
2021/12/01 01:08:28;;;;;;;20.10;10.67;;;10.40;99.90;;;;;;5093393;28;20212;-77
2021/12/01 01:16:25;;;;;;;17.07;9.20;;;10.50;99.90;;;;;;5096347;28;20207;-78
2021/12/01 01:18:57;;;;;;;16.13;9.40;;;10.50;99.90;;;;;;5111996;28;20216;-77
2021/12/01 01:21:26;;;;;;;14.90;8.63;;;10.50;99.90;;;;;;5087831;28;20621;-79
2021/12/01 01:23:54;;;;;;;14.37;8.47;;;10.60;99.90;;;;;;5106284;28;20540;-77
2021/12/01 01:26:24;;;;;;;13.93;8.43;;;10.50;99.90;;;;;;5103904;28;20258;-77
2021/12/01 01:28:51;;;;;;;14.67;9.20;;;10.60;99.90;;;;;;5099628;28;20216;-77
2021/12/01 01:31:19;;;;;;;14.27;8.53;;;10.60;99.90;;;;;;5102688;28;20207;-78
2021/12/01 01:33:47;;;;;;;15.87;8.60;;;10.60;99.90;;;;;;5105874;28;20230;-78
2021/12/01 01:36:14;;;;;;;13.87;8.03;;;10.60;99.90;;;;;;5105687;28;20235;-75
2021/12/01 01:38:43;;;;;;;13.43;7.87;;;10.50;99.90;;;;;;5105491;28;20402;-77
2021/12/01 01:41:11;;;;;;;11.97;8.20;;;10.60;99.90;;;;;;5107164;28;20239;-78
2021/12/01 01:43:40;;;;;;;12.43;7.37;;;10.60;99.90;;;;;;5118336;28;20267;-78
2021/12/01 01:46:07;;;;;;;15.83;8.10;;;10.60;99.90;;;;;;5109449;28;20223;-77
2021/12/01 01:48:45;;;;;;;15.33;7.83;;;10.60;99.90;;;;;;5096542;28;20326;-77
2021/12/01 01:51:13;;;;;;;14.37;8.57;;;10.60;99.90;;;;;;5107707;28;20437;-78
2021/12/01 01:53:40;;;;;;;11.93;7.30;;;10.60;99.90;;;;;;5092323;28;20204;-79
2021/12/01 01:56:07;;;;;;;14.17;8.17;;;10.60;99.90;;;;;;5092062;28;20663;-78
2021/12/01 01:58:35;;;;;;;11.33;6.93;;;10.70;99.90;;;;;;5106903;28;20242;-78
2021/12/01 02:01:12;;;;;;;14.50;7.73;;;10.60;99.90;;;;;;5097722;28;20302;-79
2021/12/01 02:03:44;;;;;;;14.67;7.73;;;10.60;99.90;;;;;;5090891;28;20639;-79
2021/12/01 02:06:13;;;;;;;14.87;8.33;;;10.60;99.90;;;;;;5090666;28;20793;-78
2021/12/01 02:08:42;;;;;;;14.37;8.83;;;10.60;99.90;;;;;;5091417;28;20204;-77
2021/12/01 02:11:11;;;;;;;12.70;8.43;;;10.60;99.90;;;;;;5106236;28;20207;-78
2021/12/01 02:13:40;;;;;;;11.90;8.10;;;10.50;99.90;;;;;;5091069;28;20218;-77
2021/12/01 02:16:07;;;;;;;16.63;9.67;;;10.50;99.90;;;;;;5108304;27;20298;-78
2021/12/01 02:18:35;;;;;;;14.80;8.90;;;10.60;99.90;;;;;;5090591;28;20429;-77
2021/12/01 02:21:06;;;;;;;14.13;9.03;;;10.60;99.90;;;;;;5106096;28;20212;-78
2021/12/01 02:23:35;;;;;;;14.40;9.30;;;10.60;99.90;;;;;;5090753;28;20241;-77
2021/12/01 02:26:04;;;;;;;16.60;9.63;;;10.60;99.90;;;;;;5090827;28;20263;-77
2021/12/01 02:28:32;;;;;;;15.20;8.53;;;10.50;99.90;;;;;;5090390;28;20693;-78
2021/12/01 02:31:00;;;;;;;13.37;8.60;;;10.50;99.90;;;;;;5093525;28;20254;-78
2021/12/01 02:33:28;;;;;;;11.20;7.83;;;10.50;99.90;;;;;;5090171;28;20254;-77
2021/12/01 02:35:55;;;;;;;10.60;7.03;;;10.50;99.90;;;;;;5090198;28;20216;-76
2021/12/01 02:38:23;;;;;;;9.07;6.77;;;10.50;99.90;;;;;;5090218;28;20311;-78
2021/12/01 02:40:51;;;;;;;13.17;7.03;;;10.50;99.90;;;;;;5106210;28;20257;-78
2021/12/01 02:43:23;;;;;;;10.13;6.33;;;10.40;99.90;;;;;;5072534;28;20302;-78
2021/12/01 02:45:54;;;;;;;12.03;6.73;;;10.40;99.90;;;;;;5095464;28;20322;-76
2021/12/01 02:48:22;;;;;;;9.30;6.47;;;10.40;99.90;;;;;;5084844;28;20311;-78
2021/12/01 02:50:49;;;;;;;8.93;6.73;;;10.40;99.90;;;;;;5090068;28;20212;-77
2021/12/01 02:53:20;;;;;;;9.60;6.33;;;10.40;99.90;;;;;;5090154;28;20212;-77
2021/12/01 02:55:54;;;;;;;8.27;5.70;;;10.40;99.90;;;;;;5090243;28;20203;-79
2021/12/01 02:58:22;;;;;;;10.87;6.80;;;10.40;99.90;;;;;;5090603;28;20558;-76
2021/12/01 03:00:51;;;;;;;7.97;6.27;;;10.40;99.90;;;;;;5094680;28;20632;-77
2021/12/01 03:03:19;;;;;;;8.00;6.13;;;10.40;99.90;;;;;;5090913;28;20235;-78
2021/12/01 03:05:47;;;;;;;8.20;5.50;;;10.30;99.90;;;;;;5089548;28;20657;-78
2021/12/01 03:08:16;;;;;;;7.57;5.63;;;10.40;99.90;;;;;;5090059;28;20212;-76
2021/12/01 03:10:50;;;;;;;8.53;5.53;;;10.30;99.90;;;;;;5089938;28;20211;-77
2021/12/01 03:13:20;;;;;;;7.00;5.20;;;10.20;99.90;;;;;;5093163;28;20203;-78
2021/12/01 03:15:48;;;;;;;6.83;4.93;;;10.20;99.90;;;;;;5083124;28;20207;-78
2021/12/01 03:18:16;;;;;;;5.63;4.30;;;10.20;99.90;;;;;;5083937;28;20584;-79
2021/12/01 03:20:43;;;;;;;5.50;4.23;;;10.20;99.90;;;;;;5082917;28;20204;-78
2021/12/01 03:23:11;;;;;;;4.20;3.53;;;10.20;99.90;;;;;;5088866;28;20260;-76
2021/12/01 03:25:39;;;;;;;3.97;3.07;;;10.20;99.90;;;;;;5089505;28;20235;-78
2021/12/01 03:28:07;;;;;;;4.00;3.30;;;10.10;99.90;;;;;;5100248;28;20291;-79
2021/12/01 03:30:37;;;;;;;4.83;3.23;;;10.10;99.90;;;;;;5083085;28;20250;-78
2021/12/01 03:33:09;;;;;;;5.80;3.40;;;10.10;99.90;;;;;;5083176;28;20651;-79
2021/12/01 03:35:38;;;;;;;4.43;3.33;;;10.10;99.90;;;;;;5089248;28;20715;-78
2021/12/01 03:38:05;;;;;;;3.73;3.33;;;10.10;99.90;;;;;;5089299;28;20254;-77
2021/12/01 03:40:33;;;;;;;4.37;3.30;;;10.00;99.90;;;;;;5089078;28;20586;-79
2021/12/01 03:42:59;;;;;;;4.03;3.20;;;10.00;99.90;;;;;;5093574;28;20214;-77
2021/12/01 03:45:27;;;;;;;4.20;2.83;;;10.00;99.90;;;;;;5072091;28;20243;-78
2021/12/01 03:47:54;;;;;;;3.33;2.57;;;10.00;99.90;;;;;;5105902;28;20231;-78
2021/12/01 03:50:21;;;;;;;3.00;2.60;;;10.00;99.90;;;;;;5091071;28;20215;-76
2021/12/01 03:52:49;;;;;;;4.70;2.50;;;10.00;99.90;;;;;;5105067;28;20714;-78
2021/12/01 03:55:16;;;;;;;3.63;2.93;;;9.90;99.90;;;;;;5089906;28;20196;-78
2021/12/01 03:57:43;;;;;;;3.30;2.40;;;9.90;99.90;;;;;;5089308;28;20255;-78
2021/12/01 04:00:13;;;;;;;3.80;2.63;;;9.90;99.90;;;;;;5089486;28;20755;-77
2021/12/01 04:02:41;;;;;;;4.97;3.00;;;9.90;99.90;;;;;;5088624;28;20222;-76
2021/12/01 04:05:09;;;;;;;5.43;3.60;;;9.90;99.90;;;;;;5089183;28;20203;-76
2021/12/01 04:07:37;;;;;;;4.23;3.00;;;9.80;99.90;;;;;;5104777;28;20305;-78
2021/12/01 04:10:07;;;;;;;4.03;3.10;;;9.90;99.90;;;;;;5113187;28;20270;-79
2021/12/01 04:12:35;;;;;;;4.73;3.60;;;9.90;99.90;;;;;;5088668;28;20742;-77
2021/12/01 04:15:06;;;;;;;5.67;3.33;;;9.80;99.90;;;;;;5071272;28;20264;-77
2021/12/01 04:17:32;;;;;;;4.40;3.63;;;9.80;99.90;;;;;;5089048;28;20307;-79
2021/12/01 04:19:59;;;;;;;4.00;3.27;;;9.80;99.90;;;;;;5089152;28;20261;-79
2021/12/01 04:22:26;;;;;;;4.37;3.43;;;9.80;99.90;;;;;;5089639;28;20207;-78
2021/12/01 04:24:53;;;;;;;4.20;3.30;;;9.80;99.90;;;;;;5102394;28;20244;-78
2021/12/01 04:27:20;;;;;;;4.50;3.80;;;9.80;99.90;;;;;;5105511;28;20371;-78
2021/12/01 04:29:48;;;;;;;5.17;3.30;;;9.80;99.90;;;;;;5088314;28;20671;-76
2021/12/01 04:32:15;;;;;;;4.50;3.70;;;9.80;99.90;;;;;;5088918;28;20284;-77
2021/12/01 04:34:41;;;;;;;4.63;3.27;;;9.80;99.90;;;;;;5074679;28;20652;-78
2021/12/01 04:37:08;;;;;;;3.80;3.30;;;9.80;99.90;;;;;;5093225;28;20294;-78
2021/12/01 04:39:35;;;;;;;4.20;3.40;;;9.80;99.90;;;;;;5099628;28;20203;-77
2021/12/01 04:42:05;;;;;;;4.13;3.27;;;9.80;99.90;;;;;;5092564;28;20236;-77
2021/12/01 04:44:35;;;;;;;4.43;3.33;;;9.70;99.90;;;;;;5092582;28;20247;-77
2021/12/01 04:47:10;;;;;;;4.63;3.30;;;9.70;99.90;;;;;;5092446;28;20224;-77
2021/12/01 04:49:39;;;;;;;7.13;3.43;;;9.60;99.90;;;;;;5092867;28;20674;-77
2021/12/01 04:52:08;;;;;;;4.53;3.47;;;9.60;99.90;;;;;;5092569;28;20246;-78
2021/12/01 04:54:36;;;;;;;4.33;3.27;;;9.60;99.90;;;;;;5107141;28;20242;-77
2021/12/01 04:57:05;;;;;;;5.63;3.73;;;9.50;99.90;;;;;;5109814;28;20584;-75
2021/12/01 04:59:33;;;;;;;4.30;3.43;;;9.50;99.90;;;;;;5092287;28;20203;-77
2021/12/01 05:02:01;;;;;;;5.37;4.00;;;9.50;99.90;;;;;;5090216;28;20213;-78
2021/12/01 05:04:29;;;;;;;5.30;3.50;;;9.40;99.90;;;;;;5092475;28;20207;-79
2021/12/01 05:06:56;;;;;;;6.70;4.47;;;9.40;99.90;;;;;;5092085;28;20318;-78
2021/12/01 05:09:23;;;;;;;6.37;4.17;;;9.30;99.90;;;;;;5108353;28;20195;-78
2021/12/01 05:11:50;;;;;;;4.97;3.80;;;9.30;99.90;;;;;;5079287;28;20213;-78
2021/12/01 05:14:17;;;;;;;4.90;3.80;;;9.30;99.90;;;;;;5091801;28;20211;-77
2021/12/01 05:16:45;;;;;;;6.00;3.93;;;9.30;99.90;;;;;;5091718;28;20244;-78
2021/12/01 05:19:12;;;;;;;7.37;4.40;;;9.30;99.90;;;;;;5092501;28;20227;-78
2021/12/01 05:21:41;;;;;;;5.07;3.97;;;9.20;99.90;;;;;;5101850;28;20228;-77
2021/12/01 05:24:09;;;;;;;6.67;3.83;;;9.20;99.90;;;;;;5113577;28;20233;-78
2021/12/01 05:26:37;;;;;;;5.13;3.83;;;9.20;99.90;;;;;;5080743;28;20321;-80
2021/12/01 05:29:07;;;;;;;4.60;3.20;;;9.20;99.90;;;;;;5108018;28;20199;-78
2021/12/01 05:31:33;;;;;;;3.97;2.90;;;9.20;99.90;;;;;;5092311;28;20294;-78
2021/12/01 05:34:01;;;;;;;4.73;3.47;;;9.20;99.90;;;;;;5092548;28;20638;-76
2021/12/01 05:36:28;;;;;;;4.53;3.63;;;9.20;99.90;;;;;;5094683;28;20210;-77
2021/12/01 05:38:55;;;;;;;3.87;3.20;;;9.10;99.90;;;;;;5073595;28;20591;-77
2021/12/01 05:41:22;;;;;;;4.53;3.33;;;9.20;99.90;;;;;;5093140;28;20265;-78
2021/12/01 05:43:50;;;;;;;4.80;3.20;;;9.20;99.90;;;;;;5087049;28;20311;-78
2021/12/01 05:46:18;;;;;;;5.03;3.00;;;9.10;99.90;;;;;;5071433;28;20723;-78
2021/12/01 05:48:44;;;;;;;4.10;3.03;;;9.20;99.90;;;;;;5072069;28;20315;-78
2021/12/01 05:51:11;;;;;;;4.20;3.00;;;9.10;99.90;;;;;;5075210;28;20239;-76
2021/12/01 05:53:38;;;;;;;4.77;3.37;;;9.10;99.90;;;;;;5071818;28;20207;-77
2021/12/01 05:56:05;;;;;;;3.83;3.20;;;9.00;99.90;;;;;;5053981;28;20208;-79
2021/12/01 05:58:32;;;;;;;3.93;3.10;;;9.00;99.90;;;;;;5071572;28;20210;-78
2021/12/01 06:00:58;;;;;;;4.00;3.33;;;9.00;99.90;;;;;;5071216;28;20303;-78
2021/12/01 06:03:25;;;;;;;3.97;3.13;;;9.00;99.90;;;;;;5086929;28;20219;-78
2021/12/01 06:05:56;;;;;;;4.53;3.57;;;9.00;99.90;;;;;;5077464;28;20223;-79
2021/12/01 06:08:23;;;;;;;4.27;3.03;;;9.00;99.90;;;;;;5071601;28;20257;-77
2021/12/01 06:10:50;;;;;;;5.10;3.53;;;9.00;99.90;;;;;;5071730;28;20679;-79
2021/12/01 06:13:19;;;;;;;3.60;2.87;;;9.00;99.90;;;;;;5071873;28;20544;-77
2021/12/01 06:15:52;;;;;;;3.90;3.10;;;9.00;99.90;;;;;;5071911;28;20297;-78
2021/12/01 06:18:19;;;;;;;3.53;3.00;;;9.00;99.90;;;;;;5086791;28;20237;-78
2021/12/01 06:20:47;;;;;;;3.93;3.30;;;8.90;99.90;;;;;;5064087;28;20222;-79
2021/12/01 06:23:14;;;;;;;3.83;2.87;;;9.00;99.90;;;;;;5092530;28;20547;-78
2021/12/01 06:25:41;;;;;;;3.90;2.80;;;8.90;99.90;;;;;;5092020;28;20302;-79
2021/12/01 06:28:08;;;;;;;4.17;2.90;;;8.90;99.90;;;;;;5081541;28;20697;-78
2021/12/01 06:30:37;;;;;;;4.10;2.90;;;8.90;99.90;;;;;;5088507;28;20214;-78
2021/12/01 06:33:04;;;;;;;5.13;2.90;;;8.90;99.90;;;;;;5091302;28;20230;-78
2021/12/01 06:35:33;;;;;;;4.97;3.13;;;9.00;99.90;;;;;;5101859;28;20219;-79
2021/12/01 06:38:01;;;;;;;3.00;2.60;;;8.90;99.90;;;;;;5092598;28;20191;-77
2021/12/01 06:40:28;;;;;;;4.10;2.80;;;8.90;99.90;;;;;;5093013;28;20207;-78
2021/12/01 06:42:55;;;;;;;3.27;2.57;;;8.90;99.90;;;;;;5093262;28;20219;-76
2021/12/01 06:45:23;;;;;;;4.00;3.00;;;8.90;99.90;;;;;;5109869;28;20271;-77
2021/12/01 06:47:50;;;;;;;3.93;2.70;;;8.90;99.90;;;;;;5113886;28;20325;-78
2021/12/01 06:50:17;;;;;;;3.50;2.90;;;9.00;99.90;;;;;;5120183;28;20199;-78
2021/12/01 06:52:44;;;;;;;3.70;2.87;;;8.90;99.90;;;;;;5110194;28;20206;-78
2021/12/01 06:55:12;;;;;;;3.10;2.77;;;8.90;99.90;;;;;;5082376;28;20199;-76
2021/12/01 06:57:39;;;;;;;2.93;2.37;;;8.90;99.90;;;;;;5108007;28;20222;-77
2021/12/01 07:00:09;;;;;;;2.83;2.20;;;8.90;99.90;;;;;;5110467;28;20297;-78
2021/12/01 07:02:37;;;;;;;2.20;1.83;;;8.90;99.90;;;;;;5113335;28;20225;-79
2021/12/01 07:05:08;;;;;;;2.87;2.20;;;8.90;99.90;;;;;;5113923;28;20205;-78
2021/12/01 07:07:35;;;;;;;3.13;2.10;;;8.90;99.90;;;;;;5110398;28;20300;-78
2021/12/01 07:10:08;;;;;;;3.40;2.57;;;8.90;99.90;;;;;;5112021;28;20883;-78
2021/12/01 07:12:35;;;;;;;3.37;2.13;;;8.90;99.90;;;;;;5126689;28;20313;-78
2021/12/01 07:15:06;;;;;;;3.20;2.30;;;8.90;99.90;;;;;;5102110;28;20212;-79
2021/12/01 07:17:32;;;;;;;2.83;2.03;;;8.90;99.90;;;;;;5093462;28;20218;-77
2021/12/01 07:19:59;;;;;;;2.60;2.30;;;8.90;99.90;;;;;;5093279;28;20293;-78
2021/12/01 07:22:26;;;;;;;4.87;2.63;;;8.90;99.90;;;;;;5090533;28;20333;-79
2021/12/01 07:24:53;;;;;;;4.00;2.53;;;8.90;99.90;;;;;;5091431;28;20721;-78
2021/12/01 07:27:20;;;;;;;3.37;2.70;;;9.00;99.90;;;;;;5091171;28;20268;-79
2021/12/01 07:29:47;;;;;;;4.70;3.00;;;9.00;99.90;;;;;;5106365;28;20634;-78
2021/12/01 07:32:14;;;;;;;4.57;3.03;;;9.00;99.90;;;;;;5092670;28;20612;-80
2021/12/01 07:34:41;;;;;;;4.43;3.53;;;9.00;99.90;;;;;;5074627;28;20656;-80
2021/12/01 07:37:10;;;;;;;5.03;3.17;;;9.00;99.90;;;;;;5090020;28;20211;-76
2021/12/01 07:39:37;;;;;;;4.83;3.50;;;9.10;99.90;;;;;;5090681;28;20209;-79
2021/12/01 07:42:06;;;;;;;4.93;3.10;;;9.00;99.90;;;;;;5090872;28;20328;-79
2021/12/01 07:44:33;;;;;;;4.67;3.37;;;9.00;99.90;;;;;;5090395;28;20632;-81
2021/12/01 07:47:00;;;;;;;3.90;3.33;;;9.00;99.90;;;;;;5091006;28;20313;-80
2021/12/01 07:49:27;;;;;;;4.73;3.53;;;9.10;99.90;;;;;;5090491;28;20641;-80
2021/12/01 07:51:59;;;;;;;6.20;4.47;;;9.10;99.90;;;;;;5090344;28;20293;-78
2021/12/01 07:54:26;;;;;;;7.23;4.40;;;9.10;99.90;;;;;;5094453;28;20207;-80
2021/12/01 07:56:53;;;;;;;7.00;4.50;;;9.10;99.90;;;;;;5100232;28;20254;-77
2021/12/01 07:59:20;;;;;;;6.73;4.83;;;9.20;99.90;;;;;;5092508;28;20210;-79
2021/12/01 08:01:46;;;;;;;7.70;5.33;;;9.20;99.90;;;;;;5092170;28;20342;-78
2021/12/01 08:04:14;;;;;;;7.80;5.63;;;9.20;99.90;;;;;;5091832;28;20214;-78
2021/12/01 08:06:43;;;;;;;10.93;6.13;;;9.20;99.90;;;;;;5088605;28;20321;-78
2021/12/01 08:09:10;;;;;;;10.73;6.73;;;9.30;99.90;;;;;;5089351;28;20207;-79
2021/12/01 08:11:40;;;;;;;9.90;6.13;;;9.30;99.90;;;;;;5089294;28;20704;-77
2021/12/01 08:14:07;;;;;;;8.73;6.00;;;9.30;99.90;;;;;;5090495;28;20341;-80
2021/12/01 08:16:35;;;;;;;9.60;6.67;;;9.30;99.90;;;;;;5092441;28;20880;-78
2021/12/01 08:19:03;;;;;;;9.97;6.97;;;9.40;99.90;;;;;;5089727;28;20278;-80
2021/12/01 08:21:32;;;;;;;8.97;6.60;;;9.40;99.90;;;;;;5090900;28;20239;-78
2021/12/01 08:24:10;;;;;;;9.73;6.27;;;9.40;99.90;;;;;;5094969;28;20230;-79
2021/12/01 08:26:38;;;;;;;9.80;6.13;;;9.50;99.90;;;;;;5093837;28;20360;-79
2021/12/01 08:29:05;;;;;;;9.67;6.63;;;9.50;99.90;;;;;;5094233;28;20235;-81
2021/12/01 08:31:31;;;;;;;10.63;6.93;;;9.60;99.90;;;;;;5093478;28;20230;-78
2021/12/01 08:33:59;;;;;;;12.03;7.03;;;9.60;99.90;;;;;;5091796;28;20241;-77
2021/12/01 08:36:26;;;;;;;12.07;7.03;;;9.60;99.90;;;;;;5074327;28;20289;-78
2021/12/01 08:38:53;;;;;;;14.13;7.90;;;9.60;99.90;;;;;;5093341;28;21263;-79
2021/12/01 08:41:20;;;;;;;12.10;7.47;;;9.70;99.90;;;;;;5091715;28;20261;-79
2021/12/01 08:43:46;;;;;;;11.43;7.17;;;9.50;99.90;;;;;;5089564;28;20227;-81
2021/12/01 08:46:14;;;;;;;12.03;7.97;;;9.60;99.90;;;;;;5092343;28;20256;-79
2021/12/01 08:48:41;;;;;;;12.90;7.97;;;9.60;99.90;;;;;;5090855;28;20695;-78
2021/12/01 08:51:08;;;;;;;10.53;7.43;;;9.60;99.90;;;;;;5088804;28;20203;-79
2021/12/01 08:53:37;;;;;;;13.73;7.57;;;9.60;99.90;;;;;;5067996;28;20230;-79
2021/12/01 08:56:05;;;;;;;13.73;7.10;;;9.60;99.90;;;;;;5089704;28;20591;-78
2021/12/01 08:58:32;;;;;;;11.90;6.90;;;9.60;99.90;;;;;;5072590;28;20554;-78
2021/12/01 09:01:00;;;;;;;11.37;6.93;;;9.60;99.90;;;;;;5090904;28;20217;-79
2021/12/01 09:03:27;;;;;;;9.37;6.67;;;9.60;99.90;;;;;;5089586;28;20207;-79
2021/12/01 09:05:54;;;;;;;10.30;5.60;;;9.60;99.90;;;;;;5089010;28;20246;-78
2021/12/01 09:08:23;;;;;;;9.23;4.17;;;9.60;99.90;;;;;;5090398;28;20318;-77
2021/12/01 09:10:52;;;;;;;8.53;3.13;;;9.50;99.90;;;;;;5089173;28;20260;-79
2021/12/01 09:13:24;;;;;;;6.80;3.00;;;9.50;99.90;;;;;;5088951;28;20569;-78
2021/12/01 09:15:53;;;;;;;6.47;2.97;;;9.50;99.90;;;;;;5088505;28;20302;-78
2021/12/01 09:18:27;;;;;;;6.80;2.67;;;9.40;99.90;;;;;;5089532;28;20211;-77
2021/12/01 09:20:54;;;;;;;7.77;2.40;;;9.40;99.90;;;;;;5089844;28;20260;-78
2021/12/01 09:23:20;;;;;;;7.03;2.60;;;9.40;99.90;;;;;;5092988;28;20285;-77
2021/12/01 09:25:48;;;;;;;10.87;2.60;;;9.40;99.90;;;;;;5108702;28;20578;-77
2021/12/01 09:28:17;;;;;;;8.53;2.07;;;9.30;99.90;;;;;;5092257;28;20238;-78
2021/12/01 09:30:44;;;;;;;5.47;2.10;;;9.30;99.90;;;;;;5091803;28;20206;-77
2021/12/01 09:33:12;;;;;;;4.83;2.00;;;9.30;99.90;;;;;;5092167;28;20258;-78
2021/12/01 09:35:39;;;;;;;7.37;2.13;;;9.30;99.90;;;;;;5093034;28;20221;-78
2021/12/01 09:38:07;;;;;;;10.20;1.97;;;9.30;99.90;;;;;;5105876;28;20573;-77
2021/12/01 09:40:34;;;;;;;4.90;1.63;;;9.30;99.90;;;;;;5091671;28;20289;-79
2021/12/01 09:43:01;;;;;;;11.43;1.90;;;9.30;99.90;;;;;;5092235;28;20207;-77
2021/12/01 09:45:28;;;;;;;5.37;1.60;;;9.40;99.90;;;;;;5074333;28;20267;-78
2021/12/01 09:47:56;;;;;;;6.17;1.60;;;9.40;99.90;;;;;;5092885;28;20345;-78
2021/12/01 09:50:24;;;;;;;11.53;1.70;;;9.40;99.90;;;;;;5096033;28;20300;-78
2021/12/01 09:52:52;;;;;;;4.10;1.37;;;9.40;99.90;;;;;;5081537;28;20329;-77
2021/12/01 09:55:19;;;;;;;8.03;1.93;;;9.40;99.90;;;;;;5106576;28;20195;-79
2021/12/01 09:58:04;;;;;;;5.47;1.50;;;9.40;99.90;;;;;;5109369;28;20232;-81
2021/12/01 10:00:36;;;;;;;5.30;1.23;;;9.40;99.90;;;;;;5100926;28;20219;-78
2021/12/01 10:03:07;;;;;;;4.63;1.50;;;9.50;99.90;;;;;;5122270;28;20231;-79
2021/12/01 10:05:51;;;;;;;6.47;1.40;;;9.40;99.90;;;;;;5112277;28;20195;-77
2021/12/01 10:08:26;;;;;;;4.80;1.40;;;9.40;99.90;;;;;;5109526;28;20240;-82
2021/12/01 10:10:55;;;;;;;5.50;1.50;;;9.40;99.90;;;;;;5091598;28;20206;-82
2021/12/01 10:13:28;;;;;;;6.30;1.33;;;9.30;99.90;;;;;;5092656;28;20600;-79
2021/12/01 10:15:59;;;;;;;3.87;1.17;;;9.30;99.90;;;;;;5085270;28;20288;-79
2021/12/01 10:18:26;;;;;;;2.77;1.20;;;9.30;99.90;;;;;;5090635;28;20900;-79
2021/12/01 10:21:02;;;;;;;5.67;1.70;;;9.30;99.90;;;;;;5073128;28;20223;-76
2021/12/01 10:23:30;;;;;;;3.93;1.50;;;9.20;99.90;;;;;;5106673;28;20699;-78
2021/12/01 10:26:09;;;;;;;4.37;1.50;;;9.10;99.90;;;;;;5092405;28;20211;-79
2021/12/01 10:28:39;;;;;;;3.07;1.70;;;9.10;99.90;;;;;;5091559;28;20245;-77
2021/12/01 10:31:10;;;;;;;3.70;1.40;;;9.00;99.90;;;;;;5086397;28;20222;-78
2021/12/01 10:33:38;;;;;;;4.60;1.47;;;8.90;99.90;;;;;;5087622;28;20324;-78
2021/12/01 10:36:07;;;;;;;2.97;1.43;;;8.90;99.90;;;;;;5116279;27;20235;-79
2021/12/01 10:38:37;;;;;;;4.67;1.73;;;8.90;99.90;;;;;;5077535;28;20581;-78
2021/12/01 10:41:13;;;;;;;4.77;1.70;;;8.90;99.90;;;;;;5092638;28;20260;-78
2021/12/01 10:43:48;;;;;;;4.70;1.70;;;8.90;99.90;;;;;;5092005;28;20202;-79
2021/12/01 10:46:17;;;;;;;5.80;1.70;;;9.00;99.90;;;;;;5094323;28;20211;-78
2021/12/01 10:49:01;;;;;;;5.77;1.60;;;9.00;99.90;;;;;;5096464;28;20234;-78
2021/12/01 10:51:35;;;;;;;4.10;1.27;;;9.00;99.90;;;;;;5071352;28;20347;-79
2021/12/01 10:54:04;;;;;;;2.23;1.40;;;9.00;99.90;;;;;;5075194;28;20205;-79
2021/12/01 10:56:31;;;;;;;6.23;4.23;;;9.10;99.90;;;;;;5092167;28;20227;-80
2021/12/01 10:59:10;;;;;;;9.80;3.23;;;9.20;99.90;;;;;;5091614;28;20242;-77
2021/12/01 11:01:37;;;;;;;5.23;1.30;;;9.20;99.90;;;;;;5090991;28;20288;-80
2021/12/01 11:04:05;;;;;;;5.03;1.30;;;9.20;99.90;;;;;;5105985;28;20228;-78
2021/12/01 11:06:38;;;;;;;5.67;2.00;;;9.20;99.90;;;;;;5091663;28;20762;-79
2021/12/01 11:09:05;;;;;;;7.40;1.63;;;9.20;99.90;;;;;;5091375;28;20242;-78
2021/12/01 11:11:44;;;;;;;4.63;1.77;;;9.30;99.90;;;;;;5096931;28;20241;-79
2021/12/01 11:14:41;;;;;;;11.70;2.37;;;9.30;99.90;;;;;;5082013;28;20204;-78
2021/12/01 11:17:12;;;;;;;8.40;2.20;;;9.30;99.90;;;;;;5069394;28;20211;-77
2021/12/01 11:19:39;;;;;;;4.57;1.80;;;9.40;99.90;;;;;;5090613;28;20320;-79
2021/12/01 11:22:25;;;;;;;6.70;1.67;;;9.50;99.90;;;;;;5090480;28;20343;-79
2021/12/01 11:25:15;;;;;;;9.20;2.03;;;9.50;99.90;;;;;;5102964;28;20207;-79
2021/12/01 11:27:42;;;;;;;7.10;1.70;;;9.50;99.90;;;;;;5087769;28;20230;-79
2021/12/01 11:30:10;;;;;;;6.97;2.23;;;9.50;99.90;;;;;;5091765;28;20203;-79
2021/12/01 11:32:37;;;;;;;6.33;1.47;;;9.50;99.90;;;;;;5091559;28;20306;-80
2021/12/01 11:35:05;;;;;;;9.57;2.30;;;9.60;99.90;;;;;;5091934;28;20219;-78
2021/12/01 11:37:34;;;;;;;5.40;1.50;;;9.60;99.90;;;;;;5091192;28;20207;-78
2021/12/01 11:40:03;;;;;;;8.33;1.70;;;9.60;99.90;;;;;;5091227;28;20659;-78
2021/12/01 11:42:32;;;;;;;4.67;1.37;;;9.60;99.90;;;;;;5072334;28;20443;-78
2021/12/01 11:45:01;;;;;;;3.10;1.40;;;9.70;99.90;;;;;;5091427;28;20220;-79
2021/12/01 11:47:28;;;;;;;4.63;1.60;;;9.70;99.90;;;;;;5092339;28;20641;-78
2021/12/01 11:49:57;;;;;;;10.70;1.80;;;9.80;99.90;;;;;;5090885;28;20206;-79
2021/12/01 11:52:37;;;;;;;11.00;1.70;;;9.80;99.90;;;;;;5091885;28;20204;-79
2021/12/01 11:55:06;;;;;;;7.50;2.47;;;9.80;99.90;;;;;;5093716;28;20202;-80
2021/12/01 11:57:40;;;;;;;9.13;2.00;;;9.70;99.90;;;;;;5091462;28;20239;-79
2021/12/01 12:00:08;;;;;;;5.47;1.87;;;9.70;99.90;;;;;;5106188;28;20719;-78
2021/12/01 12:02:36;;;;;;;9.60;1.80;;;9.70;99.90;;;;;;5091561;28;20219;-78
2021/12/01 12:05:15;;;;;;;6.93;1.67;;;9.70;99.90;;;;;;5091632;28;20214;-79
2021/12/01 12:07:44;;;;;;;9.30;2.23;;;9.70;99.90;;;;;;5092733;28;20268;-79
2021/12/01 12:10:19;;;;;;;6.33;2.40;;;9.70;99.90;;;;;;5093078;28;20203;-79
2021/12/01 12:13:05;;;;;;;8.50;2.53;;;9.80;99.90;;;;;;5092307;28;20206;-78
2021/12/01 12:15:37;;;;;;;6.97;2.13;;;9.80;99.90;;;;;;5102295;28;20239;-77
2021/12/01 12:18:10;;;;;;;7.57;2.57;;;9.80;99.90;;;;;;5105626;28;20242;-78
2021/12/01 12:20:45;;;;;;;12.33;2.00;;;9.80;99.90;;;;;;5109103;28;20213;-79
2021/12/01 12:23:15;;;;;;;7.70;2.97;;;9.80;99.90;;;;;;5127287;28;20202;-78
2021/12/01 12:25:56;;;;;;;13.37;2.00;;;9.80;99.90;;;;;;5116348;28;20267;-79
2021/12/01 12:28:41;;;;;;;9.77;2.23;;;9.90;99.90;;;;;;5118485;28;20251;-78
2021/12/01 12:31:19;;;;;;;8.30;2.13;;;9.90;99.90;;;;;;5127375;28;20276;-79
2021/12/01 12:34:03;;;;;;;8.60;1.70;;;9.90;99.90;;;;;;5111976;28;20219;-78
2021/12/01 12:36:47;;;;;;;9.80;2.13;;;9.80;99.90;;;;;;5131812;28;20222;-79
2021/12/01 12:39:17;;;;;;;16.60;2.07;;;9.80;99.90;;;;;;5093225;28;20277;-77
2021/12/01 12:42:04;;;;;;;7.10;1.70;;;9.80;99.90;;;;;;5111856;28;20196;-80
2021/12/01 12:44:44;;;;;;;7.00;2.07;;;9.70;99.90;;;;;;5102908;28;20904;-78
2021/12/01 12:47:37;;;;;;;9.10;1.70;;;9.80;99.90;;;;;;5113424;28;20745;-79
2021/12/01 12:50:14;;;;;;;7.80;2.43;;;9.80;99.90;;;;;;5104800;28;20234;-77
2021/12/01 12:53:06;;;;;;;6.23;1.80;;;9.90;99.90;;;;;;5109430;28;20638;-78
2021/12/01 12:55:39;;;;;;;9.67;2.17;;;9.90;99.90;;;;;;5109804;28;20200;-77
2021/12/01 12:58:08;;;;;;;10.10;2.07;;;9.90;99.90;;;;;;5100121;28;20211;-78
2021/12/01 13:00:48;;;;;;;11.47;2.20;;;9.80;99.90;;;;;;5102576;28;20366;-77
2021/12/01 13:03:24;;;;;;;9.00;2.00;;;9.70;99.90;;;;;;5104034;28;20211;-77
2021/12/01 13:05:56;;;;;;;9.93;2.23;;;9.70;99.90;;;;;;5106455;28;20235;-78
2021/12/01 13:08:35;;;;;;;7.73;1.70;;;9.60;99.90;;;;;;5109190;28;20227;-77